sensor_id;sensor_type;location;lat;lon;timestamp;P1;durP1;ratioP1;P2;durP2;ratioP2
66893;SDS011;53801;55.786;49.142;2023-03-21T00:00:04;23.10;;;7.57;;
66893;SDS011;53801;55.786;49.142;2023-03-21T00:02:30;24.15;;;7.28;;
66893;SDS011;53801;55.786;49.142;2023-03-21T00:04:56;23.07;;;7.50;;
66893;SDS011;53801;55.786;49.142;2023-03-21T00:07:21;23.50;;;7.10;;
66893;SDS011;53801;55.786;49.142;2023-03-21T00:09:46;21.03;;;7.60;;
66893;SDS011;53801;55.786;49.142;2023-03-21T00:12:14;25.13;;;7.93;;
66893;SDS011;53801;55.786;49.142;2023-03-21T00:14:41;22.13;;;6.97;;
66893;SDS011;53801;55.786;49.142;2023-03-21T00:17:07;22.13;;;7.97;;
66893;SDS011;53801;55.786;49.142;2023-03-21T00:19:34;19.98;;;7.22;;
66893;SDS011;53801;55.786;49.142;2023-03-21T00:22:02;20.63;;;7.28;;
66893;SDS011;53801;55.786;49.142;2023-03-21T00:24:27;23.83;;;7.50;;
66893;SDS011;53801;55.786;49.142;2023-03-21T00:26:53;20.50;;;7.20;;
66893;SDS011;53801;55.786;49.142;2023-03-21T00:29:18;25.77;;;8.30;;
66893;SDS011;53801;55.786;49.142;2023-03-21T00:34:11;23.05;;;7.78;;
66893;SDS011;53801;55.786;49.142;2023-03-21T00:36:36;21.03;;;7.87;;
66893;SDS011;53801;55.786;49.142;2023-03-21T00:39:02;20.83;;;7.97;;
66893;SDS011;53801;55.786;49.142;2023-03-21T00:41:28;20.10;;;7.25;;
66893;SDS011;53801;55.786;49.142;2023-03-21T00:43:54;17.50;;;6.73;;
66893;SDS011;53801;55.786;49.142;2023-03-21T00:46:19;19.20;;;6.63;;
66893;SDS011;53801;55.786;49.142;2023-03-21T00:48:45;23.30;;;7.45;;
66893;SDS011;53801;55.786;49.142;2023-03-21T00:51:12;21.90;;;7.25;;
66893;SDS011;53801;55.786;49.142;2023-03-21T00:53:39;22.02;;;7.55;;
66893;SDS011;53801;55.786;49.142;2023-03-21T00:56:05;19.90;;;7.40;;
66893;SDS011;53801;55.786;49.142;2023-03-21T00:58:30;24.77;;;7.67;;
66893;SDS011;53801;55.786;49.142;2023-03-21T01:00:56;27.13;;;9.40;;
66893;SDS011;53801;55.786;49.142;2023-03-21T01:03:21;16.63;;;6.57;;
66893;SDS011;53801;55.786;49.142;2023-03-21T01:05:50;19.70;;;7.07;;
66893;SDS011;53801;55.786;49.142;2023-03-21T01:08:32;21.45;;;7.28;;
66893;SDS011;53801;55.786;49.142;2023-03-21T01:11:00;21.37;;;7.20;;
66893;SDS011;53801;55.786;49.142;2023-03-21T01:13:25;24.58;;;7.10;;
66893;SDS011;53801;55.786;49.142;2023-03-21T01:15:52;18.88;;;6.85;;
66893;SDS011;53801;55.786;49.142;2023-03-21T01:20:52;22.58;;;8.52;;
66893;SDS011;53801;55.786;49.142;2023-03-21T01:23:18;25.73;;;8.18;;
66893;SDS011;53801;55.786;49.142;2023-03-21T01:25:43;25.10;;;8.27;;
66893;SDS011;53801;55.786;49.142;2023-03-21T01:28:11;24.48;;;7.60;;
66893;SDS011;53801;55.786;49.142;2023-03-21T01:30:37;26.60;;;8.10;;
66893;SDS011;53801;55.786;49.142;2023-03-21T01:35:51;26.77;;;9.10;;
66893;SDS011;53801;55.786;49.142;2023-03-21T01:38:17;20.27;;;6.38;;
66893;SDS011;53801;55.786;49.142;2023-03-21T01:40:43;25.53;;;7.97;;
66893;SDS011;53801;55.786;49.142;2023-03-21T01:43:20;25.73;;;9.15;;
66893;SDS011;53801;55.786;49.142;2023-03-21T01:48:41;22.73;;;9.07;;
66893;SDS011;53801;55.786;49.142;2023-03-21T01:51:08;27.45;;;9.70;;
66893;SDS011;53801;55.786;49.142;2023-03-21T01:53:35;26.40;;;8.82;;
66893;SDS011;53801;55.786;49.142;2023-03-21T01:56:05;27.25;;;8.90;;
66893;SDS011;53801;55.786;49.142;2023-03-21T01:58:32;29.10;;;9.43;;
66893;SDS011;53801;55.786;49.142;2023-03-21T02:00:59;28.20;;;9.48;;
66893;SDS011;53801;55.786;49.142;2023-03-21T02:03:25;31.83;;;9.25;;
66893;SDS011;53801;55.786;49.142;2023-03-21T02:08:45;28.97;;;8.37;;
66893;SDS011;53801;55.786;49.142;2023-03-21T02:11:19;25.17;;;8.52;;
66893;SDS011;53801;55.786;49.142;2023-03-21T02:13:46;27.63;;;9.07;;
66893;SDS011;53801;55.786;49.142;2023-03-21T02:16:24;26.23;;;8.77;;
66893;SDS011;53801;55.786;49.142;2023-03-21T02:26:56;29.02;;;8.80;;
66893;SDS011;53801;55.786;49.142;2023-03-21T02:32:02;26.48;;;7.95;;
66893;SDS011;53801;55.786;49.142;2023-03-21T02:37:01;31.30;;;9.57;;
66893;SDS011;53801;55.786;49.142;2023-03-21T02:58:55;24.92;;;8.43;;
66893;SDS011;53801;55.786;49.142;2023-03-21T03:01:21;28.53;;;8.93;;
66893;SDS011;53801;55.786;49.142;2023-03-21T03:11:47;29.80;;;9.68;;
66893;SDS011;53801;55.786;49.142;2023-03-21T03:22:17;36.07;;;8.77;;
66893;SDS011;53801;55.786;49.142;2023-03-21T03:27:40;30.73;;;9.38;;
66893;SDS011;53801;55.786;49.142;2023-03-21T03:30:08;30.13;;;9.77;;
66893;SDS011;53801;55.786;49.142;2023-03-21T03:32:35;33.25;;;9.95;;
66893;SDS011;53801;55.786;49.142;2023-03-21T03:35:02;27.17;;;9.23;;
66893;SDS011;53801;55.786;49.142;2023-03-21T03:37:30;28.90;;;8.90;;
66893;SDS011;53801;55.786;49.142;2023-03-21T03:40:05;28.20;;;8.30;;
66893;SDS011;53801;55.786;49.142;2023-03-21T03:42:40;30.20;;;8.45;;
66893;SDS011;53801;55.786;49.142;2023-03-21T03:45:11;27.77;;;8.63;;
66893;SDS011;53801;55.786;49.142;2023-03-21T03:47:37;25.47;;;8.33;;
66893;SDS011;53801;55.786;49.142;2023-03-21T03:50:06;27.55;;;8.65;;
66893;SDS011;53801;55.786;49.142;2023-03-21T03:55:18;27.80;;;9.60;;
66893;SDS011;53801;55.786;49.142;2023-03-21T04:00:48;28.17;;;8.07;;
66893;SDS011;53801;55.786;49.142;2023-03-21T04:03:14;29.45;;;7.95;;
66893;SDS011;53801;55.786;49.142;2023-03-21T04:05:40;25.10;;;8.33;;
66893;SDS011;53801;55.786;49.142;2023-03-21T04:16:44;24.55;;;7.68;;
66893;SDS011;53801;55.786;49.142;2023-03-21T04:19:10;23.27;;;7.13;;
66893;SDS011;53801;55.786;49.142;2023-03-21T04:21:35;21.30;;;7.53;;
66893;SDS011;53801;55.786;49.142;2023-03-21T04:34:42;25.38;;;8.27;;
66893;SDS011;53801;55.786;49.142;2023-03-21T04:37:17;23.83;;;7.27;;
66893;SDS011;53801;55.786;49.142;2023-03-21T04:39:43;28.55;;;8.70;;
66893;SDS011;53801;55.786;49.142;2023-03-21T04:42:11;23.90;;;7.65;;
66893;SDS011;53801;55.786;49.142;2023-03-21T04:44:39;24.50;;;7.18;;
66893;SDS011;53801;55.786;49.142;2023-03-21T04:47:05;21.50;;;7.07;;
66893;SDS011;53801;55.786;49.142;2023-03-21T04:49:30;28.13;;;7.60;;
66893;SDS011;53801;55.786;49.142;2023-03-21T04:51:56;27.93;;;8.87;;
66893;SDS011;53801;55.786;49.142;2023-03-21T04:54:21;23.73;;;8.25;;
66893;SDS011;53801;55.786;49.142;2023-03-21T04:56:47;25.83;;;8.13;;
66893;SDS011;53801;55.786;49.142;2023-03-21T04:59:13;26.63;;;7.30;;
66893;SDS011;53801;55.786;49.142;2023-03-21T05:01:39;22.40;;;7.23;;
66893;SDS011;53801;55.786;49.142;2023-03-21T05:04:05;25.30;;;8.60;;
66893;SDS011;53801;55.786;49.142;2023-03-21T05:06:30;25.57;;;7.90;;
66893;SDS011;53801;55.786;49.142;2023-03-21T05:08:56;15.67;;;5.23;;
66893;SDS011;53801;55.786;49.142;2023-03-21T05:11:26;25.55;;;7.85;;
66893;SDS011;53801;55.786;49.142;2023-03-21T05:13:52;28.63;;;7.05;;
66893;SDS011;53801;55.786;49.142;2023-03-21T05:16:17;22.95;;;7.07;;
66893;SDS011;53801;55.786;49.142;2023-03-21T05:21:19;21.13;;;7.43;;
66893;SDS011;53801;55.786;49.142;2023-03-21T05:29:23;24.52;;;6.70;;
66893;SDS011;53801;55.786;49.142;2023-03-21T05:31:49;23.20;;;8.03;;
66893;SDS011;53801;55.786;49.142;2023-03-21T05:34:14;18.63;;;6.03;;
66893;SDS011;53801;55.786;49.142;2023-03-21T05:42:03;25.05;;;7.30;;
66893;SDS011;53801;55.786;49.142;2023-03-21T05:45:06;24.10;;;7.13;;
66893;SDS011;53801;55.786;49.142;2023-03-21T05:47:32;24.52;;;7.32;;
66893;SDS011;53801;55.786;49.142;2023-03-21T05:49:57;18.93;;;6.50;;
66893;SDS011;53801;55.786;49.142;2023-03-21T05:52:23;21.40;;;6.40;;
66893;SDS011;53801;55.786;49.142;2023-03-21T05:54:48;21.77;;;8.00;;
66893;SDS011;53801;55.786;49.142;2023-03-21T05:57:14;18.13;;;5.60;;
66893;SDS011;53801;55.786;49.142;2023-03-21T05:59:39;22.87;;;7.30;;
66893;SDS011;53801;55.786;49.142;2023-03-21T06:02:05;22.73;;;6.43;;
66893;SDS011;53801;55.786;49.142;2023-03-21T06:04:34;19.93;;;6.50;;
66893;SDS011;53801;55.786;49.142;2023-03-21T06:06:59;13.18;;;5.75;;
66893;SDS011;53801;55.786;49.142;2023-03-21T06:09:25;13.27;;;4.53;;
66893;SDS011;53801;55.786;49.142;2023-03-21T06:11:51;15.63;;;6.23;;
66893;SDS011;53801;55.786;49.142;2023-03-21T06:14:17;17.33;;;6.00;;
66893;SDS011;53801;55.786;49.142;2023-03-21T06:16:43;18.98;;;6.53;;
66893;SDS011;53801;55.786;49.142;2023-03-21T06:19:09;15.80;;;5.63;;
66893;SDS011;53801;55.786;49.142;2023-03-21T06:21:35;16.43;;;6.23;;
66893;SDS011;53801;55.786;49.142;2023-03-21T06:24:00;14.27;;;5.67;;
66893;SDS011;53801;55.786;49.142;2023-03-21T06:26:26;14.38;;;5.22;;
66893;SDS011;53801;55.786;49.142;2023-03-21T06:28:51;13.80;;;5.40;;
66893;SDS011;53801;55.786;49.142;2023-03-21T06:31:18;16.17;;;5.78;;
66893;SDS011;53801;55.786;49.142;2023-03-21T06:33:46;15.80;;;4.83;;
66893;SDS011;53801;55.786;49.142;2023-03-21T06:36:14;11.85;;;5.05;;
66893;SDS011;53801;55.786;49.142;2023-03-21T06:38:40;11.63;;;4.70;;
66893;SDS011;53801;55.786;49.142;2023-03-21T06:41:06;14.82;;;5.20;;
66893;SDS011;53801;55.786;49.142;2023-03-21T06:43:33;12.65;;;5.10;;
66893;SDS011;53801;55.786;49.142;2023-03-21T06:45:58;11.40;;;4.73;;
66893;SDS011;53801;55.786;49.142;2023-03-21T06:48:24;13.43;;;5.53;;
66893;SDS011;53801;55.786;49.142;2023-03-21T06:50:52;13.32;;;5.07;;
66893;SDS011;53801;55.786;49.142;2023-03-21T06:53:21;11.27;;;4.00;;
66893;SDS011;53801;55.786;49.142;2023-03-21T06:55:49;11.68;;;5.00;;
66893;SDS011;53801;55.786;49.142;2023-03-21T06:58:15;11.00;;;4.80;;
66893;SDS011;53801;55.786;49.142;2023-03-21T07:00:41;11.07;;;4.55;;
66893;SDS011;53801;55.786;49.142;2023-03-21T07:03:06;17.63;;;5.03;;
66893;SDS011;53801;55.786;49.142;2023-03-21T07:05:34;12.93;;;5.10;;
66893;SDS011;53801;55.786;49.142;2023-03-21T07:07:59;12.17;;;5.17;;
66893;SDS011;53801;55.786;49.142;2023-03-21T07:10:25;12.73;;;4.65;;
66893;SDS011;53801;55.786;49.142;2023-03-21T07:12:50;10.47;;;4.60;;
66893;SDS011;53801;55.786;49.142;2023-03-21T07:15:16;13.60;;;5.43;;
66893;SDS011;53801;55.786;49.142;2023-03-21T07:17:42;14.00;;;5.30;;
66893;SDS011;53801;55.786;49.142;2023-03-21T07:20:07;9.63;;;4.37;;
66893;SDS011;53801;55.786;49.142;2023-03-21T07:22:34;11.48;;;4.38;;
66893;SDS011;53801;55.786;49.142;2023-03-21T07:24:59;10.23;;;4.32;;
66893;SDS011;53801;55.786;49.142;2023-03-21T07:27:25;8.87;;;3.80;;
66893;SDS011;53801;55.786;49.142;2023-03-21T07:29:50;8.60;;;3.90;;
66893;SDS011;53801;55.786;49.142;2023-03-21T07:32:16;10.17;;;4.70;;
66893;SDS011;53801;55.786;49.142;2023-03-21T07:34:41;12.77;;;4.50;;
66893;SDS011;53801;55.786;49.142;2023-03-21T07:37:07;9.75;;;4.15;;
66893;SDS011;53801;55.786;49.142;2023-03-21T07:39:32;7.50;;;3.87;;
66893;SDS011;53801;55.786;49.142;2023-03-21T07:41:59;11.02;;;4.78;;
66893;SDS011;53801;55.786;49.142;2023-03-21T07:44:25;9.90;;;4.23;;
66893;SDS011;53801;55.786;49.142;2023-03-21T07:46:51;9.73;;;4.30;;
66893;SDS011;53801;55.786;49.142;2023-03-21T07:49:16;9.43;;;4.13;;
66893;SDS011;53801;55.786;49.142;2023-03-21T07:51:42;8.40;;;4.00;;
66893;SDS011;53801;55.786;49.142;2023-03-21T07:54:07;9.13;;;4.20;;
66893;SDS011;53801;55.786;49.142;2023-03-21T07:56:33;8.13;;;3.83;;
66893;SDS011;53801;55.786;49.142;2023-03-21T07:58:59;8.80;;;4.23;;
66893;SDS011;53801;55.786;49.142;2023-03-21T08:01:25;7.47;;;4.20;;
66893;SDS011;53801;55.786;49.142;2023-03-21T08:03:50;10.95;;;5.53;;
66893;SDS011;53801;55.786;49.142;2023-03-21T08:06:20;9.57;;;4.10;;
66893;SDS011;53801;55.786;49.142;2023-03-21T08:08:45;6.95;;;3.67;;
66893;SDS011;53801;55.786;49.142;2023-03-21T08:11:13;8.53;;;3.73;;
66893;SDS011;53801;55.786;49.142;2023-03-21T08:13:39;10.10;;;3.78;;
66893;SDS011;53801;55.786;49.142;2023-03-21T08:16:05;8.43;;;3.53;;
66893;SDS011;53801;55.786;49.142;2023-03-21T08:18:31;7.88;;;3.38;;
66893;SDS011;53801;55.786;49.142;2023-03-21T08:20:57;7.55;;;3.50;;
66893;SDS011;53801;55.786;49.142;2023-03-21T08:23:22;9.52;;;3.72;;
66893;SDS011;53801;55.786;49.142;2023-03-21T08:25:52;7.35;;;3.55;;
66893;SDS011;53801;55.786;49.142;2023-03-21T08:28:17;10.33;;;3.87;;
66893;SDS011;53801;55.786;49.142;2023-03-21T08:30:43;6.88;;;3.25;;
66893;SDS011;53801;55.786;49.142;2023-03-21T08:33:09;7.93;;;3.53;;
66893;SDS011;53801;55.786;49.142;2023-03-21T08:35:34;8.15;;;3.58;;
66893;SDS011;53801;55.786;49.142;2023-03-21T08:38:03;10.03;;;3.73;;
66893;SDS011;53801;55.786;49.142;2023-03-21T08:40:29;7.90;;;4.53;;
66893;SDS011;53801;55.786;49.142;2023-03-21T08:42:54;8.13;;;4.70;;
66893;SDS011;53801;55.786;49.142;2023-03-21T08:45:20;6.50;;;4.30;;
66893;SDS011;53801;55.786;49.142;2023-03-21T08:47:46;9.63;;;4.40;;
66893;SDS011;53801;55.786;49.142;2023-03-21T08:50:17;8.02;;;4.15;;
66893;SDS011;53801;55.786;49.142;2023-03-21T08:52:42;10.07;;;4.10;;
66893;SDS011;53801;55.786;49.142;2023-03-21T08:55:08;7.80;;;4.30;;
66893;SDS011;53801;55.786;49.142;2023-03-21T08:57:34;8.05;;;4.55;;
66893;SDS011;53801;55.786;49.142;2023-03-21T08:59:59;9.47;;;4.47;;
66893;SDS011;53801;55.786;49.142;2023-03-21T09:02:43;7.70;;;4.77;;
66893;SDS011;53801;55.786;49.142;2023-03-21T09:05:29;7.40;;;3.67;;
66893;SDS011;53801;55.786;49.142;2023-03-21T09:07:54;7.13;;;3.57;;
66893;SDS011;53801;55.786;49.142;2023-03-21T09:10:21;7.78;;;3.67;;
66893;SDS011;53801;55.786;49.142;2023-03-21T09:12:47;7.80;;;4.20;;
66893;SDS011;53801;55.786;49.142;2023-03-21T09:15:13;8.25;;;3.53;;
66893;SDS011;53801;55.786;49.142;2023-03-21T09:17:40;8.07;;;4.15;;
66893;SDS011;53801;55.786;49.142;2023-03-21T09:20:09;7.82;;;3.13;;
66893;SDS011;53801;55.786;49.142;2023-03-21T09:22:36;7.55;;;3.22;;
66893;SDS011;53801;55.786;49.142;2023-03-21T09:25:02;6.43;;;3.40;;
66893;SDS011;53801;55.786;49.142;2023-03-21T09:27:28;7.70;;;3.97;;
66893;SDS011;53801;55.786;49.142;2023-03-21T09:29:54;7.50;;;3.58;;
66893;SDS011;53801;55.786;49.142;2023-03-21T09:32:21;17.73;;;4.05;;
66893;SDS011;53801;55.786;49.142;2023-03-21T09:34:47;7.13;;;3.00;;
66893;SDS011;53801;55.786;49.142;2023-03-21T09:37:13;8.18;;;3.40;;
66893;SDS011;53801;55.786;49.142;2023-03-21T09:39:39;7.60;;;3.63;;
66893;SDS011;53801;55.786;49.142;2023-03-21T09:49:45;7.10;;;3.42;;
66893;SDS011;53801;55.786;49.142;2023-03-21T09:55:16;7.40;;;3.78;;
66893;SDS011;53801;55.786;49.142;2023-03-21T09:57:44;6.93;;;3.43;;
66893;SDS011;53801;55.786;49.142;2023-03-21T10:00:14;8.88;;;3.80;;
66893;SDS011;53801;55.786;49.142;2023-03-21T10:02:46;8.68;;;3.88;;
66893;SDS011;53801;55.786;49.142;2023-03-21T10:07:44;8.45;;;3.05;;
66893;SDS011;53801;55.786;49.142;2023-03-21T10:10:13;6.03;;;3.17;;
66893;SDS011;53801;55.786;49.142;2023-03-21T10:12:43;7.20;;;3.45;;
66893;SDS011;53801;55.786;49.142;2023-03-21T10:15:10;7.20;;;3.42;;
66893;SDS011;53801;55.786;49.142;2023-03-21T10:17:43;6.68;;;3.28;;
66893;SDS011;53801;55.786;49.142;2023-03-21T10:20:13;6.65;;;3.03;;
66893;SDS011;53801;55.786;49.142;2023-03-21T10:22:39;7.37;;;3.33;;
66893;SDS011;53801;55.786;49.142;2023-03-21T10:25:05;16.05;;;7.15;;
66893;SDS011;53801;55.786;49.142;2023-03-21T10:27:31;6.22;;;2.78;;
66893;SDS011;53801;55.786;49.142;2023-03-21T10:29:57;6.72;;;3.00;;
66893;SDS011;53801;55.786;49.142;2023-03-21T10:32:25;10.75;;;3.40;;
66893;SDS011;53801;55.786;49.142;2023-03-21T10:34:54;8.77;;;3.73;;
66893;SDS011;53801;55.786;49.142;2023-03-21T10:37:21;6.70;;;3.38;;
66893;SDS011;53801;55.786;49.142;2023-03-21T10:39:51;9.25;;;3.78;;
66893;SDS011;53801;55.786;49.142;2023-03-21T10:42:30;11.88;;;3.83;;
66893;SDS011;53801;55.786;49.142;2023-03-21T10:45:01;9.60;;;4.10;;
66893;SDS011;53801;55.786;49.142;2023-03-21T10:47:30;10.93;;;3.60;;
66893;SDS011;53801;55.786;49.142;2023-03-21T10:50:07;8.80;;;3.30;;
66893;SDS011;53801;55.786;49.142;2023-03-21T10:52:33;8.27;;;3.65;;
66893;SDS011;53801;55.786;49.142;2023-03-21T10:55:05;8.85;;;3.45;;
66893;SDS011;53801;55.786;49.142;2023-03-21T10:57:32;9.57;;;4.10;;
66893;SDS011;53801;55.786;49.142;2023-03-21T11:00:02;20.63;;;4.43;;
66893;SDS011;53801;55.786;49.142;2023-03-21T11:02:39;8.05;;;3.42;;
66893;SDS011;53801;55.786;49.142;2023-03-21T11:05:16;8.23;;;3.65;;
66893;SDS011;53801;55.786;49.142;2023-03-21T11:07:43;10.27;;;3.95;;
66893;SDS011;53801;55.786;49.142;2023-03-21T11:10:25;10.40;;;3.67;;
66893;SDS011;53801;55.786;49.142;2023-03-21T11:12:53;8.73;;;3.50;;
66893;SDS011;53801;55.786;49.142;2023-03-21T11:18:20;11.47;;;3.83;;
66893;SDS011;53801;55.786;49.142;2023-03-21T11:20:50;10.43;;;3.63;;
66893;SDS011;53801;55.786;49.142;2023-03-21T11:23:16;9.35;;;3.47;;
66893;SDS011;53801;55.786;49.142;2023-03-21T11:25:42;11.60;;;4.35;;
66893;SDS011;53801;55.786;49.142;2023-03-21T11:28:10;7.60;;;3.43;;
66893;SDS011;53801;55.786;49.142;2023-03-21T11:30:36;11.60;;;3.80;;
66893;SDS011;53801;55.786;49.142;2023-03-21T11:33:02;9.55;;;3.58;;
66893;SDS011;53801;55.786;49.142;2023-03-21T11:35:37;14.43;;;3.10;;
66893;SDS011;53801;55.786;49.142;2023-03-21T11:38:03;8.00;;;3.05;;
66893;SDS011;53801;55.786;49.142;2023-03-21T11:40:30;10.77;;;3.38;;
66893;SDS011;53801;55.786;49.142;2023-03-21T11:42:57;12.90;;;3.63;;
66893;SDS011;53801;55.786;49.142;2023-03-21T11:45:24;9.10;;;3.38;;
66893;SDS011;53801;55.786;49.142;2023-03-21T11:47:51;10.13;;;3.07;;
66893;SDS011;53801;55.786;49.142;2023-03-21T11:50:36;10.10;;;3.92;;
66893;SDS011;53801;55.786;49.142;2023-03-21T11:58:32;8.68;;;3.70;;
66893;SDS011;53801;55.786;49.142;2023-03-21T12:04:09;10.48;;;3.38;;
66893;SDS011;53801;55.786;49.142;2023-03-21T12:06:33;9.85;;;3.85;;
66893;SDS011;53801;55.786;49.142;2023-03-21T12:09:02;11.45;;;3.22;;
66893;SDS011;53801;55.786;49.142;2023-03-21T12:14:17;9.93;;;3.33;;
66893;SDS011;53801;55.786;49.142;2023-03-21T12:16:48;14.32;;;3.55;;
66893;SDS011;53801;55.786;49.142;2023-03-21T12:32:28;7.18;;;3.10;;
66893;SDS011;53801;55.786;49.142;2023-03-21T12:37:32;9.75;;;3.20;;
66893;SDS011;53801;55.786;49.142;2023-03-21T12:45:16;11.67;;;3.10;;
66893;SDS011;53801;55.786;49.142;2023-03-21T12:47:44;14.40;;;3.72;;
66893;SDS011;53801;55.786;49.142;2023-03-21T12:50:18;9.50;;;3.42;;
66893;SDS011;53801;55.786;49.142;2023-03-21T12:52:48;11.43;;;3.30;;
66893;SDS011;53801;55.786;49.142;2023-03-21T12:55:20;11.23;;;3.97;;
66893;SDS011;53801;55.786;49.142;2023-03-21T13:00:22;9.33;;;3.33;;
66893;SDS011;53801;55.786;49.142;2023-03-21T13:02:54;8.93;;;2.50;;
66893;SDS011;53801;55.786;49.142;2023-03-21T13:07:53;6.22;;;3.00;;
66893;SDS011;53801;55.786;49.142;2023-03-21T13:10:20;11.13;;;3.10;;
66893;SDS011;53801;55.786;49.142;2023-03-21T13:18:20;7.30;;;2.92;;
66893;SDS011;53801;55.786;49.142;2023-03-21T13:20:56;7.22;;;2.50;;
66893;SDS011;53801;55.786;49.142;2023-03-21T13:23:23;8.40;;;2.67;;
66893;SDS011;53801;55.786;49.142;2023-03-21T13:25:49;10.20;;;3.67;;
66893;SDS011;53801;55.786;49.142;2023-03-21T13:28:33;11.75;;;2.90;;
66893;SDS011;53801;55.786;49.142;2023-03-21T13:33:45;9.20;;;3.08;;
66893;SDS011;53801;55.786;49.142;2023-03-21T13:36:13;6.13;;;2.42;;
66893;SDS011;53801;55.786;49.142;2023-03-21T13:38:48;8.07;;;3.30;;
66893;SDS011;53801;55.786;49.142;2023-03-21T13:48:32;6.97;;;2.70;;
66893;SDS011;53801;55.786;49.142;2023-03-21T13:51:09;7.05;;;2.50;;
66893;SDS011;53801;55.786;49.142;2023-03-21T13:53:36;11.27;;;3.67;;
66893;SDS011;53801;55.786;49.142;2023-03-21T13:56:18;8.83;;;2.20;;
66893;SDS011;53801;55.786;49.142;2023-03-21T14:01:15;5.82;;;2.67;;
66893;SDS011;53801;55.786;49.142;2023-03-21T14:03:42;7.53;;;2.70;;
66893;SDS011;53801;55.786;49.142;2023-03-21T14:06:09;8.60;;;2.33;;
66893;SDS011;53801;55.786;49.142;2023-03-21T14:08:35;10.80;;;2.90;;
66893;SDS011;53801;55.786;49.142;2023-03-21T14:11:02;6.70;;;2.55;;
66893;SDS011;53801;55.786;49.142;2023-03-21T14:13:29;6.50;;;2.53;;
66893;SDS011;53801;55.786;49.142;2023-03-21T14:16:06;6.87;;;2.60;;
66893;SDS011;53801;55.786;49.142;2023-03-21T14:18:38;8.75;;;2.67;;
66893;SDS011;53801;55.786;49.142;2023-03-21T14:21:05;4.43;;;2.30;;
66893;SDS011;53801;55.786;49.142;2023-03-21T14:23:30;6.47;;;2.23;;
66893;SDS011;53801;55.786;49.142;2023-03-21T14:25:56;9.63;;;2.30;;
66893;SDS011;53801;55.786;49.142;2023-03-21T14:28:24;8.75;;;2.40;;
66893;SDS011;53801;55.786;49.142;2023-03-21T14:30:51;6.13;;;2.42;;
66893;SDS011;53801;55.786;49.142;2023-03-21T14:35:51;7.28;;;3.20;;
66893;SDS011;53801;55.786;49.142;2023-03-21T14:38:36;9.57;;;2.80;;
66893;SDS011;53801;55.786;49.142;2023-03-21T14:41:02;7.80;;;3.15;;
66893;SDS011;53801;55.786;49.142;2023-03-21T14:43:27;6.27;;;2.10;;
66893;SDS011;53801;55.786;49.142;2023-03-21T14:45:55;10.63;;;2.70;;
66893;SDS011;53801;55.786;49.142;2023-03-21T14:48:30;8.07;;;2.80;;
66893;SDS011;53801;55.786;49.142;2023-03-21T14:50:57;8.50;;;2.08;;
66893;SDS011;53801;55.786;49.142;2023-03-21T14:53:27;6.32;;;2.60;;
66893;SDS011;53801;55.786;49.142;2023-03-21T14:58:25;8.52;;;3.00;;
66893;SDS011;53801;55.786;49.142;2023-03-21T15:00:53;9.25;;;2.70;;
66893;SDS011;53801;55.786;49.142;2023-03-21T15:03:19;3.47;;;1.60;;
66893;SDS011;53801;55.786;49.142;2023-03-21T15:05:46;7.57;;;2.15;;
66893;SDS011;53801;55.786;49.142;2023-03-21T15:08:13;8.53;;;2.40;;
66893;SDS011;53801;55.786;49.142;2023-03-21T15:10:39;6.22;;;2.55;;
66893;SDS011;53801;55.786;49.142;2023-03-21T15:13:18;4.77;;;1.80;;
66893;SDS011;53801;55.786;49.142;2023-03-21T15:15:44;7.75;;;2.47;;
66893;SDS011;53801;55.786;49.142;2023-03-21T15:18:12;6.65;;;2.50;;
66893;SDS011;53801;55.786;49.142;2023-03-21T15:20:42;11.75;;;3.28;;
66893;SDS011;53801;55.786;49.142;2023-03-21T15:23:14;7.80;;;2.30;;
66893;SDS011;53801;55.786;49.142;2023-03-21T15:25:40;4.90;;;2.13;;
66893;SDS011;53801;55.786;49.142;2023-03-21T15:28:06;8.63;;;2.10;;
66893;SDS011;53801;55.786;49.142;2023-03-21T15:30:32;9.03;;;2.03;;
66893;SDS011;53801;55.786;49.142;2023-03-21T15:33:04;12.15;;;2.60;;
66893;SDS011;53801;55.786;49.142;2023-03-21T15:35:32;6.53;;;2.00;;
66893;SDS011;53801;55.786;49.142;2023-03-21T15:37:58;8.93;;;1.90;;
66893;SDS011;53801;55.786;49.142;2023-03-21T15:40:25;7.50;;;1.80;;
66893;SDS011;53801;55.786;49.142;2023-03-21T15:42:51;3.55;;;1.50;;
66893;SDS011;53801;55.786;49.142;2023-03-21T15:45:28;4.75;;;1.85;;
66893;SDS011;53801;55.786;49.142;2023-03-21T15:47:58;4.73;;;1.63;;
66893;SDS011;53801;55.786;49.142;2023-03-21T15:52:53;5.30;;;2.20;;
66893;SDS011;53801;55.786;49.142;2023-03-21T15:55:21;6.20;;;1.75;;
66893;SDS011;53801;55.786;49.142;2023-03-21T15:57:51;4.13;;;1.70;;
66893;SDS011;53801;55.786;49.142;2023-03-21T16:00:22;5.60;;;1.70;;
66893;SDS011;53801;55.786;49.142;2023-03-21T16:02:51;5.25;;;1.70;;
66893;SDS011;53801;55.786;49.142;2023-03-21T16:07:50;7.63;;;1.80;;
66893;SDS011;53801;55.786;49.142;2023-03-21T16:10:35;8.02;;;1.70;;
66893;SDS011;53801;55.786;49.142;2023-03-21T16:13:05;4.03;;;1.80;;
66893;SDS011;53801;55.786;49.142;2023-03-21T16:15:31;3.50;;;1.70;;
66893;SDS011;53801;55.786;49.142;2023-03-21T16:17:58;4.28;;;1.70;;
66893;SDS011;53801;55.786;49.142;2023-03-21T16:20:25;4.85;;;1.80;;
66893;SDS011;53801;55.786;49.142;2023-03-21T16:22:51;5.80;;;2.47;;
66893;SDS011;53801;55.786;49.142;2023-03-21T16:25:17;5.47;;;2.00;;
66893;SDS011;53801;55.786;49.142;2023-03-21T16:27:44;4.68;;;2.00;;
66893;SDS011;53801;55.786;49.142;2023-03-21T16:30:13;8.75;;;2.05;;
66893;SDS011;53801;55.786;49.142;2023-03-21T16:32:40;5.43;;;1.60;;
66893;SDS011;53801;55.786;49.142;2023-03-21T16:35:05;5.50;;;1.60;;
66893;SDS011;53801;55.786;49.142;2023-03-21T16:37:31;5.10;;;2.08;;
66893;SDS011;53801;55.786;49.142;2023-03-21T16:39:57;8.23;;;2.10;;
66893;SDS011;53801;55.786;49.142;2023-03-21T16:42:23;6.43;;;1.53;;
66893;SDS011;53801;55.786;49.142;2023-03-21T16:44:48;7.07;;;1.98;;
66893;SDS011;53801;55.786;49.142;2023-03-21T16:47:18;4.87;;;1.97;;
66893;SDS011;53801;55.786;49.142;2023-03-21T16:49:45;7.07;;;2.55;;
66893;SDS011;53801;55.786;49.142;2023-03-21T16:52:11;8.57;;;2.63;;
66893;SDS011;53801;55.786;49.142;2023-03-21T16:54:37;7.37;;;2.37;;
66893;SDS011;53801;55.786;49.142;2023-03-21T16:57:03;7.10;;;1.98;;
66893;SDS011;53801;55.786;49.142;2023-03-21T16:59:32;6.28;;;2.15;;
66893;SDS011;53801;55.786;49.142;2023-03-21T17:01:58;7.35;;;2.67;;
66893;SDS011;53801;55.786;49.142;2023-03-21T17:04:23;7.07;;;1.93;;
66893;SDS011;53801;55.786;49.142;2023-03-21T17:06:50;9.38;;;2.00;;
66893;SDS011;53801;55.786;49.142;2023-03-21T17:09:18;9.82;;;2.83;;
66893;SDS011;53801;55.786;49.142;2023-03-21T17:11:44;9.52;;;2.83;;
66893;SDS011;53801;55.786;49.142;2023-03-21T17:14:13;9.43;;;4.00;;
66893;SDS011;53801;55.786;49.142;2023-03-21T17:16:43;14.00;;;3.78;;
66893;SDS011;53801;55.786;49.142;2023-03-21T17:19:19;13.25;;;4.35;;
66893;SDS011;53801;55.786;49.142;2023-03-21T17:21:46;15.70;;;4.75;;
66893;SDS011;53801;55.786;49.142;2023-03-21T17:24:12;13.63;;;4.67;;
66893;SDS011;53801;55.786;49.142;2023-03-21T17:26:37;11.80;;;3.95;;
66893;SDS011;53801;55.786;49.142;2023-03-21T17:29:04;14.73;;;4.82;;
66893;SDS011;53801;55.786;49.142;2023-03-21T17:31:34;10.35;;;3.45;;
66893;SDS011;53801;55.786;49.142;2023-03-21T17:34:06;7.88;;;3.15;;
66893;SDS011;53801;55.786;49.142;2023-03-21T17:36:34;10.73;;;3.47;;